Latest Weather Observations for Camooweal

IDQ60801

Issued at 2:05 pm EST Monday 28 July 2014 (issued every 30 minutes, with the page automatically refreshed every 10 minutes)

About weather observations | Map of weather stations | Latest weather observations for QLD | Other Formats
Station Details ID: 037010 Name: CAMOOWEAL TOWNSHIP Lat: -19.92 Lon: 138.12 Height: 231.2 m
Data from the previous 72 hours. | See also: Recent months at Camooweal
Date/Time
EST
Temp
°C
App
Temp
°C
Dew
Point
Rel
Hum
%
Delta-T
°C
Wind Press
QNH
hPa
Press
MSL
hPa
Rain
since 9 am
mm
Dir
 
Spd
km/h
Gust
km/h
Spd
kts
Gust
kts
28/02:00pm 28.4 24.7 2.6 19 12.9 SW 11 15 6 8 1018.5 1018.1 0.0
28/01:30pm 28.5 24.5 2.7 19 12.9 SE 13 24 7 13 1019.0 - 0.0
28/01:00pm 28.0 24.9 3.7 21 12.3 SSW 9 15 5 8 1019.6 1019.2 0.0
28/12:30pm 28.1 23.5 3.7 21 12.4 ESE 17 24 9 13 1020.3 - 0.0
28/12:00pm 27.4 23.2 3.8 22 11.9 SSE 15 20 8 11 1020.8 1020.3 0.0
28/11:30am 27.3 22.7 3.7 22 11.9 SE 17 24 9 13 1021.2 - 0.0
28/11:00am 26.2 21.3 2.2 21 11.7 ESE 17 26 9 14 1021.6 1021.2 0.0
28/10:30am 25.6 21.4 1.7 21 11.5 SE 13 17 7 9 1021.9 - 0.0
28/10:00am 22.4 18.0 0.3 23 10.1 S 13 17 7 9 1022.1 1021.7 0.0
28/09:30am 20.1 15.6 -0.5 25 9.1 SSE 13 17 7 9 1022.2 - 0.0
28/09:00am 18.0 13.8 -0.8 28 8.1 SSE 11 17 6 9 1022.0 1021.6 0.0
28/08:30am 14.9 11.5 -0.8 34 6.6 S 7 9 4 5 1021.7 - 0.0
28/08:00am 11.6 7.8 -0.5 43 4.9 S 9 11 5 6 1021.4 1021.0 0.0
28/07:30am 10.8 6.9 -1.3 43 4.8 S 9 11 5 6 1021.2 - 0.0
28/07:00am 12.0 8.2 -0.5 42 5.1 SSE 9 11 5 6 1020.9 1020.4 0.0
28/06:30am 11.5 7.7 -0.9 42 5.0 SSW 9 11 5 6 1020.9 - 0.0
28/06:00am 11.3 7.4 -1.5 41 5.1 SSW 9 9 5 5 1020.6 1020.1 0.0
28/05:30am 12.3 8.4 -1.2 39 5.5 SW 9 11 5 6 1020.4 - 0.0
28/05:00am 13.6 9.7 -1.2 36 6.1 S 9 11 5 6 1020.3 1019.8 0.0
28/04:30am 14.8 11.4 -0.9 34 6.6 S 7 9 4 5 1020.3 - 0.0
28/04:00am 15.3 11.8 -1.3 32 6.9 S 7 11 4 6 1020.3 1019.8 0.0
28/03:30am 15.6 12.1 -1.0 32 7.0 SE 7 11 4 6 1020.4 - 0.0
28/03:00am 16.2 12.4 -0.9 31 7.2 SE 9 13 5 7 1020.5 1020.0 0.0
28/02:30am 16.7 12.9 -0.9 30 7.5 SSE 9 13 5 7 1020.6 - 0.0
28/02:00am 17.2 12.6 -1.0 29 7.8 SSE 13 19 7 10 1020.7 1020.2 0.0
28/01:30am 18.2 13.3 -0.6 28 8.2 SE 15 20 8 11 1021.0 - 0.0
28/01:00am 18.7 13.4 -0.7 27 8.4 SSE 17 22 9 12 1020.9 1020.4 0.0
28/12:30am 18.6 13.7 -0.7 27 8.4 SSE 15 20 8 11 1021.3 - 0.0
28/12:00am 18.7 14.1 -0.7 27 8.4 SSE 13 17 7 9 1021.4 1021.0 0.0
 
Date/Time
EST
Temp
°C
App
Temp
°C
Dew
Point
Rel
Hum
%
Delta-T
°C
Wind Press
QNH
hPa
Press
MSL
hPa
Rain
since 9 am
mm
Dir
 
Spd
km/h
Gust
km/h
Spd
kts
Gust
kts
27/11:30pm 19.4 14.1 -0.6 26 8.8 SSE 17 20 9 11 1021.4 - 0.0
27/11:00pm 20.0 14.3 -0.6 25 9.1 SSE 19 26 10 14 1021.5 1021.1 0.0
27/10:30pm 20.3 14.6 -0.9 24 9.3 SSE 19 30 10 16 1021.5 - 0.0
27/10:00pm 21.1 15.2 -0.8 23 9.7 SSE 20 26 11 14 1021.3 1020.9 0.0
27/09:30pm 22.0 16.1 -0.7 22 10.2 SSE 20 30 11 16 1021.3 - 0.0
27/09:00pm 22.5 16.9 -0.3 22 10.3 SSE 19 22 10 12 1021.2 1020.8 0.0
27/08:30pm 22.4 17.6 0.3 23 10.1 S 15 17 8 9 1020.9 - 0.0
27/08:00pm 22.1 17.7 0.6 24 9.9 S 13 15 7 8 1020.5 1020.0 0.0
27/07:30pm 22.9 18.6 1.3 24 10.1 SSE 13 15 7 8 1020.2 - 0.0
27/07:00pm 23.9 19.7 1.5 23 10.6 ESE 13 15 7 8 1019.6 1019.2 0.0
27/06:30pm 25.7 21.5 1.8 21 11.6 SSE 13 19 7 10 1019.2 - 0.0
27/06:00pm 27.1 22.2 2.2 20 12.2 SSE 17 26 9 14 1019.0 1018.6 0.0
27/05:30pm 27.9 22.6 2.9 20 12.5 S 20 30 11 16 1018.9 - 0.0
27/05:00pm 28.2 23.1 3.1 20 12.6 SSE 19 22 10 12 1018.8 1018.4 0.0
27/04:30pm 29.0 23.7 3.1 19 13.1 SE 20 26 11 14 1018.8 - 0.0
27/04:00pm 28.6 23.0 3.5 20 12.7 S 22 32 12 17 1018.8 1018.4 0.0
27/03:30pm 29.2 24.1 3.9 20 13.0 SSE 20 26 11 14 1018.9 - 0.0
27/03:00pm 29.3 23.8 4.0 20 13.0 SE 22 30 12 16 1019.1 1018.7 0.0
27/02:30pm 29.2 23.7 3.9 20 13.0 SE 22 30 12 16 1019.6 - 0.0
27/02:00pm 29.5 24.6 4.9 21 12.8 SSE 20 30 11 16 1020.1 1019.6 0.0
27/01:30pm 29.0 23.7 5.1 22 12.5 SSE 22 35 12 19 1020.6 - 0.0
27/01:00pm 27.7 23.2 4.1 22 12.0 SE 17 26 9 14 1021.4 1021.0 0.0
27/12:30pm 27.5 22.0 3.9 22 12.0 SE 22 37 12 20 1022.1 - 0.0
27/12:00pm 27.5 22.4 3.9 22 11.9 SE 20 32 11 17 1022.7 1022.3 0.0
27/11:30am 26.4 21.1 3.0 22 11.6 SE 20 30 11 16 1023.2 - 0.0
27/11:00am 24.9 19.4 1.7 22 11.1 SE 20 30 11 16 1023.6 1023.2 0.0
27/10:30am 24.3 18.1 1.9 23 10.7 SE 24 32 13 17 1023.8 - 0.0
27/10:00am 23.5 16.8 1.2 23 10.4 SE 26 35 14 19 1023.7 1023.3 0.0
27/09:30am 21.5 15.1 1.2 26 9.4 SE 24 33 13 18 1023.6 - 0.0
27/09:00am 19.5 14.4 1.0 29 8.4 SE 17 28 9 15 1023.6 1023.2 0.0
27/08:30am 17.5 13.1 0.6 32 7.5 SE 13 17 7 9 1023.4 - 0.0
27/08:00am 15.6 11.7 1.0 37 6.4 S 11 13 6 7 1023.2 1022.8 0.0
27/07:30am 15.0 11.3 0.1 36 6.4 SSE 9 13 5 7 1023.1 - 0.0
27/07:00am 16.5 12.5 0.2 33 7.1 SE 11 15 6 8 1022.7 1022.3 0.0
27/06:30am 17.5 12.8 0.6 32 7.5 SE 15 20 8 11 1022.5 - 0.0
27/06:00am 17.5 12.4 0.6 32 7.5 SSE 17 20 9 11 1022.1 1021.7 0.0
27/05:30am 17.4 13.0 0.6 32 7.4 SSE 13 17 7 9 1022.1 - 0.0
27/05:00am 17.5 12.8 0.6 32 7.5 SE 15 24 8 13 1021.8 1021.4 0.0
27/04:30am 17.3 12.9 0.5 32 7.4 SSE 13 20 7 11 1021.7 - 0.0
27/04:00am 17.3 12.5 0.5 32 7.4 SSE 15 20 8 11 1021.7 1021.3 0.0
27/03:30am 17.6 12.8 0.3 31 7.6 SE 15 20 8 11 1021.7 - 0.0
27/03:00am 17.8 12.7 0.5 31 7.6 SE 17 24 9 13 1021.8 1021.4 0.0
27/02:30am 18.5 13.4 0.6 30 8.0 SSE 17 24 9 13 1022.0 - 0.0
27/02:00am 18.6 14.3 0.7 30 8.0 SE 13 19 7 10 1022.3 1021.9 0.0
27/01:30am 19.2 14.5 0.8 29 8.3 SE 15 22 8 12 1022.7 - 0.0
27/01:00am 19.9 14.3 0.9 28 8.6 SSE 20 28 11 15 1022.5 1022.1 0.0
27/12:30am 20.2 14.6 1.1 28 8.7 SE 20 28 11 15 1022.5 - 0.0
27/12:00am 20.6 15.0 1.0 27 8.9 SE 20 26 11 14 1022.6 1022.2 0.0
 
Date/Time
EST
Temp
°C
App
Temp
°C
Dew
Point
Rel
Hum
%
Delta-T
°C
Wind Press
QNH
hPa
Press
MSL
hPa
Rain
since 9 am
mm
Dir
 
Spd
km/h
Gust
km/h
Spd
kts
Gust
kts
26/11:30pm 21.1 15.5 0.9 26 9.3 SE 20 28 11 15 1022.7 - 0.0
26/11:00pm 21.2 15.6 1.0 26 9.3 SE 20 24 11 13 1022.8 1022.4 0.0
26/10:30pm 21.4 15.9 0.6 25 9.5 SE 19 24 10 13 1022.9 - 0.0
26/10:00pm 21.6 16.1 0.8 25 9.5 SSE 19 24 10 13 1022.8 1022.4 0.0
26/09:30pm 22.2 16.7 0.7 24 9.9 SSE 19 26 10 14 1022.6 - 0.0
26/09:00pm 22.8 17.1 0.6 23 10.2 SSE 20 26 11 14 1022.4 1022.0 0.0
26/08:30pm 23.3 17.8 0.4 22 10.6 SSE 19 26 10 14 1022.1 - 0.0
26/08:00pm 24.4 18.8 1.3 22 10.9 SSE 20 28 11 15 1021.9 1021.5 0.0
26/07:30pm 24.8 19.5 1.7 22 11.1 SSE 19 24 10 13 1021.5 - 0.0
26/07:00pm 25.3 20.4 2.1 22 11.2 SSE 17 22 9 12 1021.1 1020.7 0.0
26/06:30pm 26.6 20.8 2.5 21 11.9 SSE 22 30 12 16 1020.6 - 0.0
26/06:00pm 27.6 21.1 2.6 20 12.4 S 26 35 14 19 1020.2 1019.7 0.0
26/05:30pm 28.4 21.6 3.3 20 12.7 SSE 28 39 15 21 1020.0 - 0.0
26/05:00pm 28.8 22.5 3.6 20 12.8 SSE 26 39 14 21 1019.6 1019.2 0.0
26/04:30pm 29.0 23.1 3.8 20 12.9 SSE 24 39 13 21 1019.6 - 0.0
26/04:00pm 29.4 24.4 4.8 21 12.8 SSE 20 30 11 16 1019.5 1019.1 0.0
26/03:30pm 29.4 23.7 4.8 21 12.8 SSE 24 35 13 19 1019.4 - 0.0
26/03:00pm 29.7 24.4 5.1 21 12.9 SE 22 33 12 18 1019.6 1019.2 0.0
26/02:30pm 29.5 24.0 4.2 20 13.1 SSE 22 33 12 18 1019.9 - 0.0
26/02:00pm 29.3 23.4 4.0 20 13.0 SSE 24 35 13 19 1020.1 1019.6 0.0
26/01:30pm 28.6 23.4 3.5 20 12.8 SSE 20 33 11 18 1020.8 - 0.0
26/01:00pm 28.0 22.6 2.2 19 12.7 SE 20 30 11 16 1021.4 1021.0 0.0
26/12:30pm 27.7 22.3 2.7 20 12.5 SE 20 26 11 14 1022.0 - 0.0
26/12:00pm 27.4 22.1 3.2 21 12.1 SSE 20 28 11 15 1022.5 1022.1 0.0
26/11:30am 25.9 20.5 2.6 22 11.4 ESE 20 28 11 15 1023.1 - 0.0
26/11:00am 24.5 19.0 2.0 23 10.8 SE 20 30 11 16 1023.5 1023.1 0.0
26/10:30am 23.1 16.9 2.0 25 10.1 SE 24 30 13 16 1023.6 - 0.0
26/10:00am 22.5 17.2 2.1 26 9.6 SE 19 24 10 13 1023.7 1023.3 0.0
26/09:30am 19.9 14.5 1.4 29 8.5 SSE 19 24 10 13 1023.7 - 0.0
26/09:00am 18.4 13.0 1.0 31 7.8 S 19 26 10 14 1023.5 1023.1 0.0
26/08:30am 17.3 13.6 2.1 36 6.9 S 11 15 6 8 1023.1 - 0.0
26/08:00am 13.9 10.1 1.9 44 5.3 SSW 11 11 6 6 1022.9 1022.5 0.0
26/07:30am 13.0 10.0 1.7 46 4.9 SSE 7 9 4 5 1022.5 - 0.0
26/07:00am 13.2 10.1 1.5 45 5.1 SSE 7 9 4 5 1022.2 1021.8 0.0
26/06:30am 13.6 10.1 1.3 43 5.3 S 9 11 5 6 1022.1 - 0.0
26/06:00am 13.8 10.1 2.1 45 5.2 SSW 11 11 6 6 1021.7 1021.3 0.0
26/05:30am 14.5 11.0 1.4 41 5.7 SSW 9 11 5 6 1021.5 - 0.0
26/05:00am 16.7 13.7 2.0 37 6.6 SSE 7 9 4 5 1021.4 1021.0 0.0
26/04:30am 17.1 13.7 1.9 36 6.9 SSW 9 15 5 8 1021.3 - 0.0
26/04:00am 18.6 14.9 2.4 34 7.5 SSE 11 17 6 9 1021.3 1020.9 0.0
26/03:30am 19.1 15.0 2.5 33 7.7 SSE 13 20 7 11 1021.2 - 0.0
26/03:00am 19.0 14.7 3.2 35 7.4 S 15 22 8 12 1021.2 1020.8 0.0
26/02:30am 19.3 15.6 4.3 37 7.3 SSE 13 17 7 9 1021.3 - 0.0
26/02:00am 19.6 16.1 5.3 39 7.1 SSE 13 17 7 9 1021.4 1021.0 0.0
26/01:30am 17.9 15.1 5.2 43 6.2 S 9 9 5 5 1021.4 - 0.0
26/01:00am 18.5 16.2 5.7 43 6.3 S 7 9 4 5 1021.3 1020.9 0.0
26/12:30am 19.5 17.0 6.6 43 6.5 SSW 9 11 5 6 1021.4 - 0.0
26/12:00am 20.9 18.4 6.4 39 7.4 SSE 9 15 5 8 1021.3 1020.9 0.0
 
Date/Time
EST
Temp
°C
App
Temp
°C
Dew
Point
Rel
Hum
%
Delta-T
°C
Wind Press
QNH
hPa
Press
MSL
hPa
Rain
since 9 am
mm
Dir
 
Spd
km/h
Gust
km/h
Spd
kts
Gust
kts
25/11:30pm 21.3 18.1 6.8 39 7.5 SE 13 17 7 9 1021.3 - 0.0
25/11:00pm 20.3 17.7 6.3 40 7.1 ESE 9 13 5 7 1021.1 1020.7 0.0
25/10:30pm 20.9 19.2 7.5 42 7.0 SE 6 7 3 4 1021.0 - 0.0
25/10:00pm 21.2 19.8 7.4 41 7.2 SE 4 7 2 4 1020.8 1020.3 0.0
25/09:30pm 20.8 18.6 6.4 39 7.3 SE 7 9 4 5 1020.6 - 0.0
25/09:00pm 21.1 18.8 5.9 37 7.7 ESE 7 9 4 5 1020.2 1019.7 0.0
25/08:30pm 22.7 20.5 6.0 34 8.5 ENE 7 9 4 5 1019.8 - 0.0
25/08:00pm 23.4 22.6 6.7 34 8.7 CALM 0 0 0 0 1019.4 1019.0 0.0
25/07:30pm 23.5 21.3 5.4 31 9.2 NE 6 7 3 4 1019.1 - 0.0
25/07:00pm 25.7 23.5 6.3 29 10.1 NNE 7 9 4 5 1018.7 1018.3 0.0
25/06:30pm 26.9 24.5 6.9 28 10.7 NNE 9 11 5 6 1018.2 - 0.0
25/06:00pm 28.3 26.1 6.4 25 11.7 NNE 7 15 4 8 1017.8 1017.4 0.0
25/05:30pm 29.2 26.2 6.0 23 12.3 NNE 11 15 6 8 1017.6 - 0.0
25/05:00pm 29.1 26.3 5.2 22 12.5 NNE 9 15 5 8 1017.3 1016.9 0.0
25/04:30pm 28.9 26.5 4.4 21 12.7 NNW 6 7 3 4 1017.1 - 0.0
25/04:00pm 29.2 26.2 3.9 20 13.0 N 9 17 5 9 1017.1 1016.6 0.0
25/03:30pm 30.1 27.1 4.0 19 13.5 ENE 9 17 5 9 1017.1 - 0.0
25/03:00pm 30.1 27.1 4.0 19 13.5 ESE 9 20 5 11 1017.3 1016.9 0.0
25/02:30pm 29.9 27.0 4.5 20 13.2 ENE 9 19 5 10 1017.5 - 0.0

Other Formats:

Comma delimited format used in spreadsheet applications
http://www.bom.gov.au/fwo/IDQ60801/IDQ60801.94255.axf

JavaScript Object Notation format (JSON) in row-major order
http://www.bom.gov.au/fwo/IDQ60801/IDQ60801.94255.json